Time;durP1;ratioP1;P1;durP2;ratioP2;P2;SDS_P1;SDS_P2;PMS_P1;PMS_P2;Temp;Humidity;BMP_temperature;BMP_pressure;BME280_temperature;BME280_humidity;BME280_pressure;Samples;Min_cycle;Max_cycle;Signal;HPM_P1;HPM_P2
2022/04/03 00:02:33;;;;;;;23.33;8.50;;;;;;;;;;6367990;27;20483;-77
2022/04/03 00:05:38;;;;;;;15.23;6.35;;;;;;;;;;6343284;27;20046;-78
2022/04/03 00:08:38;;;;;;;17.27;6.57;;;;;;;;;;6365754;27;20494;-75
2022/04/03 00:11:38;;;;;;;11.48;4.72;;;;;;;;;;6345156;27;20087;-76
2022/04/03 00:14:38;;;;;;;20.45;5.97;;;;;;;;;;6359200;27;20026;-76
2022/04/03 00:17:39;;;;;;;15.80;6.18;;;;;;;;;;6363673;27;20015;-76
2022/04/03 00:20:40;;;;;;;23.58;8.65;;;;;;;;;;6366865;27;20023;-76
2022/04/03 00:23:40;;;;;;;19.53;7.47;;;;;;;;;;6367966;27;20019;-76
2022/04/03 00:26:40;;;;;;;16.67;7.57;;;;;;;;;;6348874;27;20402;-77
2022/04/03 00:29:41;;;;;;;11.30;4.80;;;;;;;;;;6364352;27;20094;-77
2022/04/03 00:32:41;;;;;;;11.18;5.20;;;;;;;;;;6364037;27;20160;-77
2022/04/03 00:35:42;;;;;;;17.15;7.53;;;;;;;;;;6366416;27;20437;-77
2022/04/03 00:38:42;;;;;;;12.70;6.47;;;;;;;;;;6361694;27;20485;-77
2022/04/03 00:41:43;;;;;;;18.80;7.72;;;;;;;;;;6361407;27;20016;-77
2022/04/03 00:44:43;;;;;;;8.98;4.35;;;;;;;;;;6366535;27;20054;-77
2022/04/03 00:47:43;;;;;;;12.25;5.50;;;;;;;;;;6363606;27;20035;-77
2022/04/03 00:50:44;;;;;;;16.13;7.60;;;;;;;;;;6348123;27;20022;-77
2022/04/03 00:53:44;;;;;;;10.73;4.72;;;;;;;;;;6346527;27;20390;-77
2022/04/03 00:56:45;;;;;;;17.73;6.55;;;;;;;;;;6343252;27;20106;-77
2022/04/03 00:59:45;;;;;;;20.85;7.28;;;;;;;;;;6362489;27;20529;-77
2022/04/03 01:02:45;;;;;;;8.95;4.85;;;;;;;;;;6336150;27;20027;-77
2022/04/03 01:05:45;;;;;;;10.52;5.85;;;;;;;;;;6342854;28;20375;-77
2022/04/03 01:08:46;;;;;;;13.13;5.13;;;;;;;;;;6343609;28;20439;-77
2022/04/03 01:11:46;;;;;;;16.20;7.18;;;;;;;;;;6356326;27;20063;-77
2022/04/03 01:14:46;;;;;;;15.27;6.63;;;;;;;;;;6368543;27;20448;-77
2022/04/03 01:17:46;;;;;;;21.63;8.23;;;;;;;;;;6350358;27;20018;-77
2022/04/03 01:20:47;;;;;;;18.15;8.25;;;;;;;;;;6368324;27;20030;-78
2022/04/03 01:23:47;;;;;;;16.17;8.35;;;;;;;;;;6347692;28;20018;-78
2022/04/03 01:26:48;;;;;;;16.92;9.00;;;;;;;;;;6347797;27;20086;-78
2022/04/03 01:29:49;;;;;;;22.02;6.43;;;;;;;;;;6343990;27;20023;-78
2022/04/03 01:32:49;;;;;;;18.27;7.13;;;;;;;;;;6368485;27;20039;-78
2022/04/03 01:35:49;;;;;;;20.90;8.23;;;;;;;;;;6382771;27;20352;-78
2022/04/03 01:38:50;;;;;;;14.27;7.75;;;;;;;;;;6364765;27;20015;-78
2022/04/03 01:41:50;;;;;;;17.50;7.53;;;;;;;;;;6360654;28;20053;-78
2022/04/03 01:44:50;;;;;;;20.48;9.18;;;;;;;;;;6366923;27;20060;-78
2022/04/03 01:47:51;;;;;;;15.32;5.55;;;;;;;;;;6369070;27;20072;-78
2022/04/03 01:50:51;;;;;;;16.45;7.63;;;;;;;;;;6378561;27;20023;-78
2022/04/03 01:53:51;;;;;;;12.73;6.25;;;;;;;;;;6366296;28;20019;-78
2022/04/03 01:56:52;;;;;;;19.73;10.02;;;;;;;;;;6349399;28;20030;-78
2022/04/03 01:59:52;;;;;;;19.58;9.00;;;;;;;;;;6349813;28;20502;-78
2022/04/03 02:02:52;;;;;;;20.80;7.45;;;;;;;;;;6363140;27;20083;-79
2022/04/03 02:05:53;;;;;;;12.85;5.22;;;;;;;;;;6377562;27;20374;-79
2022/04/03 02:08:54;;;;;;;11.85;6.03;;;;;;;;;;6394440;27;20428;-79
2022/04/03 02:11:54;;;;;;;10.38;5.25;;;;;;;;;;6392870;28;20064;-79
2022/04/03 02:14:54;;;;;;;16.05;6.75;;;;;;;;;;6383267;28;20019;-79
2022/04/03 02:17:55;;;;;;;10.05;5.15;;;;;;;;;;6378973;28;20020;-79
2022/04/03 02:20:55;;;;;;;12.43;6.07;;;;;;;;;;6392597;28;20108;-79
2022/04/03 02:23:55;;;;;;;22.67;6.82;;;;;;;;;;6364347;28;20121;-79
2022/04/03 02:26:56;;;;;;;8.07;4.47;;;;;;;;;;6359029;28;20053;-79
2022/04/03 02:29:56;;;;;;;17.45;6.25;;;;;;;;;;6358379;28;20058;-79
2022/04/03 02:32:57;;;;;;;12.35;5.50;;;;;;;;;;6354695;28;20054;-79
2022/04/03 02:35:57;;;;;;;15.48;6.28;;;;;;;;;;6371764;28;20012;-79
2022/04/03 02:38:57;;;;;;;19.65;7.90;;;;;;;;;;6373907;27;20015;-79
2022/04/03 02:41:58;;;;;;;15.40;5.97;;;;;;;;;;6359737;27;20023;-80
2022/04/03 02:44:58;;;;;;;11.25;4.45;;;;;;;;;;6355736;27;20011;-80
2022/04/03 02:47:58;;;;;;;10.32;5.15;;;;;;;;;;6350223;27;20015;-80
2022/04/03 02:50:59;;;;;;;11.07;4.97;;;;;;;;;;6348430;27;20385;-80
2022/04/03 02:54:00;;;;;;;17.35;7.00;;;;;;;;;;6354820;27;20026;-80
2022/04/03 02:57:00;;;;;;;8.68;5.40;;;;;;;;;;6354298;27;20023;-80
2022/04/03 03:00:02;;;;;;;7.63;3.97;;;;;;;;;;6354523;27;20051;-80
2022/04/03 03:03:04;;;;;;;;;;;;;;;;;;6372988;27;20023;-80
2022/04/03 03:06:06;;;;;;;9.85;4.50;;;;;;;;;;6350996;27;19912;-80
2022/04/03 03:09:06;;;;;;;14.32;6.20;;;;;;;;;;6356421;27;20027;-79
2022/04/03 03:12:07;;;;;;;10.07;5.00;;;;;;;;;;6354875;27;20048;-79
2022/04/03 03:15:08;;;;;;;7.50;4.72;;;;;;;;;;6372105;27;20034;-80
2022/04/03 03:18:08;;;;;;;6.70;3.92;;;;;;;;;;6372844;27;20059;-79
2022/04/03 03:21:09;;;;;;;7.50;3.88;;;;;;;;;;6353494;27;20019;-79
2022/04/03 03:24:09;;;;;;;10.40;4.60;;;;;;;;;;6373202;27;20023;-79
2022/04/03 03:27:09;;;;;;;11.80;4.82;;;;;;;;;;6353814;27;20491;-80
2022/04/03 03:30:11;;;;;;;11.13;4.00;;;;;;;;;;6353943;27;20019;-80
2022/04/03 03:33:11;;;;;;;12.00;4.78;;;;;;;;;;6372595;27;20027;-80
2022/04/03 03:36:11;;;;;;;12.52;5.00;;;;;;;;;;6354006;27;20027;-80
2022/04/03 03:39:12;;;;;;;5.30;3.80;;;;;;;;;;6347419;27;20030;-80
2022/04/03 03:42:12;;;;;;;7.53;3.58;;;;;;;;;;6347032;28;20024;-80
2022/04/03 03:45:13;;;;;;;8.27;4.60;;;;;;;;;;6391032;27;20369;-80
2022/04/03 03:48:13;;;;;;;14.95;4.88;;;;;;;;;;6385845;27;20382;-79
2022/04/03 03:51:14;;;;;;;11.68;5.10;;;;;;;;;;6372571;27;20366;-80
2022/04/03 03:54:15;;;;;;;11.25;4.97;;;;;;;;;;6372436;27;20027;-80
2022/04/03 03:57:15;;;;;;;10.52;5.10;;;;;;;;;;6353518;27;20022;-79
2022/04/03 04:00:15;;;;;;;7.63;3.60;;;;;;;;;;6371601;27;20467;-79
2022/04/03 04:03:16;;;;;;;7.78;4.07;;;;;;;;;;6353038;27;20508;-79
2022/04/03 04:06:16;;;;;;;8.32;3.70;;;;;;;;;;6353191;27;20035;-79
2022/04/03 04:09:16;;;;;;;11.88;5.28;;;;;;;;;;6370893;27;20062;-79
2022/04/03 04:12:16;;;;;;;10.60;5.82;;;;;;;;;;6371207;27;20071;-79
2022/04/03 04:15:17;;;;;;;9.05;2.75;;;;;;;;;;6350379;27;20019;-79
2022/04/03 04:18:17;;;;;;;11.40;5.18;;;;;;;;;;6370276;27;20023;-78
2022/04/03 04:21:17;;;;;;;6.45;3.63;;;;;;;;;;6370219;27;20054;-78
2022/04/03 04:24:18;;;;;;;8.20;3.78;;;;;;;;;;6352021;27;20079;-78
2022/04/03 04:27:18;;;;;;;6.30;3.25;;;;;;;;;;6351191;27;20021;-78
2022/04/03 04:30:18;;;;;;;5.45;3.47;;;;;;;;;;6369773;27;20029;-77
2022/04/03 04:33:19;;;;;;;5.80;3.50;;;;;;;;;;6370043;27;20038;-77
2022/04/03 04:36:19;;;;;;;10.57;4.18;;;;;;;;;;6369899;27;20102;-77
2022/04/03 04:39:21;;;;;;;8.18;4.30;;;;;;;;;;6346565;27;20387;-77
2022/04/03 04:42:21;;;;;;;9.82;3.75;;;;;;;;;;6344033;28;20028;-77
2022/04/03 04:45:21;;;;;;;10.82;4.30;;;;;;;;;;6325681;28;20482;-77
2022/04/03 04:48:22;;;;;;;15.63;5.65;;;;;;;;;;6341778;27;20058;-77
2022/04/03 04:51:22;;;;;;;9.95;4.35;;;;;;;;;;6368686;27;20559;-77
2022/04/03 04:54:23;;;;;;;13.18;6.07;;;;;;;;;;6349803;27;20015;-77
2022/04/03 04:57:23;;;;;;;5.32;2.97;;;;;;;;;;6369167;27;20015;-77
2022/04/03 05:00:28;;;;;;;7.72;3.95;;;;;;;;;;6350590;27;20026;-77
2022/04/03 05:03:29;;;;;;;6.03;3.25;;;;;;;;;;6344215;28;20023;-77
2022/04/03 05:06:29;;;;;;;9.50;3.67;;;;;;;;;;6343987;28;20043;-77
2022/04/03 05:09:31;;;;;;;10.77;4.88;;;;;;;;;;6344094;28;20496;-77
2022/04/03 05:12:31;;;;;;;;;;;;;;;;;;6344014;27;20027;-77
2022/04/03 05:15:33;;;;;;;10.93;4.78;;;;;;;;;;6368935;27;19950;-77
2022/04/03 05:18:34;;;;;;;11.10;3.90;;;;;;;;;;6349033;27;20055;-77
2022/04/03 05:21:35;;;;;;;13.20;4.45;;;;;;;;;;6357781;27;20030;-77
2022/04/03 05:24:35;;;;;;;6.85;3.88;;;;;;;;;;6348946;28;20023;-77
2022/04/03 05:27:35;;;;;;;6.30;2.90;;;;;;;;;;6323361;28;20569;-78
2022/04/03 05:30:35;;;;;;;11.55;4.55;;;;;;;;;;6330097;28;20054;-78
2022/04/03 05:33:36;;;;;;;13.13;4.60;;;;;;;;;;6343657;28;20030;-78
2022/04/03 05:36:36;;;;;;;13.90;4.07;;;;;;;;;;6348662;28;20015;-78
2022/04/03 05:39:36;;;;;;;11.13;4.25;;;;;;;;;;6358748;28;20382;-78
2022/04/03 05:42:37;;;;;;;11.07;5.50;;;;;;;;;;6343813;28;20290;-78
2022/04/03 05:45:40;;;;;;;9.45;3.67;;;;;;;;;;6326909;28;20278;-78
2022/04/03 05:48:40;;;;;;;8.23;3.80;;;;;;;;;;6347037;28;20482;-79
2022/04/03 05:51:41;;;;;;;10.02;4.28;;;;;;;;;;6347265;28;20027;-79
2022/04/03 05:54:41;;;;;;;7.88;3.90;;;;;;;;;;6349352;28;20065;-79
2022/04/03 05:57:42;;;;;;;10.75;4.50;;;;;;;;;;6370393;28;20049;-79
2022/04/03 06:00:42;;;;;;;9.27;4.30;;;;;;;;;;6351391;28;20068;-79
2022/04/03 06:03:43;;;;;;;9.85;4.50;;;;;;;;;;6369820;28;20023;-79
2022/04/03 06:06:43;;;;;;;11.45;4.68;;;;;;;;;;6368545;28;20023;-79
2022/04/03 06:09:44;;;;;;;16.08;5.97;;;;;;;;;;6365690;28;20051;-79
2022/04/03 06:13:01;;;;;;;10.00;5.40;;;;;;;;;;6341104;27;20016;-79
2022/04/03 06:16:02;;;;;;;8.70;3.67;;;;;;;;;;6361408;27;20068;-79
2022/04/03 06:19:02;;;;;;;13.63;4.30;;;;;;;;;;6345276;28;20424;-79
2022/04/03 06:22:03;;;;;;;8.07;4.30;;;;;;;;;;6341026;28;20027;-78
2022/04/03 06:25:03;;;;;;;12.00;5.28;;;;;;;;;;6340832;27;20031;-78
2022/04/03 06:28:04;;;;;;;7.25;3.80;;;;;;;;;;6348355;27;20023;-78
2022/04/03 06:31:04;;;;;;;11.27;4.95;;;;;;;;;;6365511;27;20402;-78
2022/04/03 06:34:04;;;;;;;8.40;4.35;;;;;;;;;;6358749;27;20061;-79
2022/04/03 06:37:05;;;;;;;10.20;4.72;;;;;;;;;;6348708;27;20518;-79
2022/04/03 06:40:06;;;;;;;12.52;4.70;;;;;;;;;;6349725;27;20022;-79
2022/04/03 06:43:07;;;;;;;10.63;5.30;;;;;;;;;;6355454;27;20027;-79
2022/04/03 06:46:07;;;;;;;10.82;5.53;;;;;;;;;;6343908;27;21324;-79
2022/04/03 06:49:07;;;;;;;15.25;5.65;;;;;;;;;;6356920;27;20027;-79
2022/04/03 06:52:08;;;;;;;12.57;5.22;;;;;;;;;;6341294;27;20513;-78
2022/04/03 06:55:09;;;;;;;12.73;5.97;;;;;;;;;;6356564;27;20031;-78
2022/04/03 06:58:09;;;;;;;10.95;5.20;;;;;;;;;;6351071;27;20020;-78
2022/04/03 07:01:09;;;;;;;9.70;5.28;;;;;;;;;;6362141;27;20042;-78
2022/04/03 07:04:09;;;;;;;8.60;4.68;;;;;;;;;;6351501;27;20436;-78
2022/04/03 07:07:10;;;;;;;8.13;4.45;;;;;;;;;;6345708;27;20027;-78
2022/04/03 07:10:10;;;;;;;11.85;6.05;;;;;;;;;;6357565;27;20033;-78
2022/04/03 07:13:10;;;;;;;11.75;6.03;;;;;;;;;;6346114;27;20046;-78
2022/04/03 07:16:11;;;;;;;19.77;9.37;;;;;;;;;;6360780;27;20473;-77
2022/04/03 07:19:11;;;;;;;17.13;10.27;;;;;;;;;;6365402;27;20789;-77
2022/04/03 07:22:11;;;;;;;10.98;5.82;;;;;;;;;;6364501;27;20034;-76
2022/04/03 07:25:12;;;;;;;13.98;5.85;;;;;;;;;;6361841;27;20334;-76
2022/04/03 07:28:12;;;;;;;11.93;5.53;;;;;;;;;;6365485;27;20034;-76
2022/04/03 07:31:13;;;;;;;10.05;5.10;;;;;;;;;;6361292;27;20039;-75
2022/04/03 07:34:14;;;;;;;11.67;6.23;;;;;;;;;;6345741;27;20110;-75
2022/04/03 07:37:14;;;;;;;11.63;6.95;;;;;;;;;;6369307;27;20313;-75
2022/04/03 07:40:14;;;;;;;11.10;5.43;;;;;;;;;;6364099;27;20052;-75
2022/04/03 07:43:16;;;;;;;11.52;6.15;;;;;;;;;;6366919;27;20027;-75
2022/04/03 07:46:17;;;;;;;9.77;5.13;;;;;;;;;;6351782;27;20076;-74
2022/04/03 07:49:17;;;;;;;18.05;7.82;;;;;;;;;;6325133;28;20344;-74
2022/04/03 07:52:17;;;;;;;12.40;5.10;;;;;;;;;;6348850;27;20027;-74
2022/04/03 07:55:18;;;;;;;10.73;5.90;;;;;;;;;;6346401;27;20249;-73
2022/04/03 07:58:18;;;;;;;9.18;4.10;;;;;;;;;;6348303;27;20258;-73
2022/04/03 08:01:19;;;;;;;11.23;5.55;;;;;;;;;;6342121;27;20050;-73
2022/04/03 08:04:19;;;;;;;14.77;6.55;;;;;;;;;;6336545;27;20031;-72
2022/04/03 08:07:20;;;;;;;8.80;4.83;;;;;;;;;;6340876;27;20027;-72
2022/04/03 08:10:20;;;;;;;19.60;8.38;;;;;;;;;;6354244;27;20287;-72
2022/04/03 08:13:20;;;;;;;9.98;5.40;;;;;;;;;;6355755;27;20034;-72
2022/04/03 08:16:21;;;;;;;14.35;6.63;;;;;;;;;;6355599;27;20027;-72
2022/04/03 08:19:21;;;;;;;11.02;4.53;;;;;;;;;;6342058;27;20634;-72
2022/04/03 08:22:21;;;;;;;16.75;6.40;;;;;;;;;;6362365;27;20030;-72
2022/04/03 08:25:21;;;;;;;8.85;4.82;;;;;;;;;;6361049;27;20031;-73
2022/04/03 08:28:22;;;;;;;12.40;5.33;;;;;;;;;;6351291;27;20062;-72
2022/04/03 08:31:23;;;;;;;11.05;4.90;;;;;;;;;;6348113;27;20319;-72
2022/04/03 08:34:23;;;;;;;9.98;5.25;;;;;;;;;;6351576;27;20027;-73
2022/04/03 08:37:24;;;;;;;12.47;6.00;;;;;;;;;;6350432;27;20016;-73
2022/04/03 08:40:25;;;;;;;12.18;5.35;;;;;;;;;;6348543;27;20269;-72
2022/04/03 08:43:27;;;;;;;12.00;5.47;;;;;;;;;;6343949;28;20142;-73
2022/04/03 08:46:32;;;;;;;10.40;5.03;;;;;;;;;;6352729;27;20027;-72
2022/04/03 08:49:33;;;;;;;11.65;5.90;;;;;;;;;;6347636;27;20443;-72
2022/04/03 08:52:35;;;;;;;10.88;4.80;;;;;;;;;;6351501;27;20092;-72
2022/04/03 08:55:35;;;;;;;11.55;5.22;;;;;;;;;;6355706;27;20522;-72
2022/04/03 08:58:35;;;;;;;11.63;5.45;;;;;;;;;;6349988;27;20023;-71
2022/04/03 09:01:36;;;;;;;11.03;4.50;;;;;;;;;;6352989;27;20100;-71
2022/04/03 09:04:36;;;;;;;7.63;3.10;;;;;;;;;;6351396;27;20341;-71
2022/04/03 09:07:37;;;;;;;11.15;5.03;;;;;;;;;;6347812;27;20019;-71
2022/04/03 09:10:38;;;;;;;9.93;4.47;;;;;;;;;;6345401;27;20135;-71
2022/04/03 09:13:39;;;;;;;9.63;5.28;;;;;;;;;;6356068;27;20012;-71
2022/04/03 09:16:40;;;;;;;12.30;5.47;;;;;;;;;;6355984;27;20056;-71
2022/04/03 09:19:40;;;;;;;14.57;5.65;;;;;;;;;;6353168;27;20019;-71
2022/04/03 09:22:42;;;;;;;9.90;5.50;;;;;;;;;;6345196;27;20023;-70
2022/04/03 09:25:43;;;;;;;11.98;5.40;;;;;;;;;;6352508;27;20428;-70
2022/04/03 09:28:43;;;;;;;14.85;6.45;;;;;;;;;;6346751;28;20675;-71
2022/04/03 09:31:45;;;;;;;14.73;6.47;;;;;;;;;;6344797;27;20043;-71
2022/04/03 09:34:54;;;;;;;11.45;5.63;;;;;;;;;;6342390;28;20280;-70
2022/04/03 09:38:05;;;;;;;9.18;5.32;;;;;;;;;;6346074;28;20015;-70
2022/04/03 09:41:07;;;;;;;10.18;5.55;;;;;;;;;;6346028;28;20394;-71
2022/04/03 09:44:17;;;;;;;8.90;5.15;;;;;;;;;;6368042;28;20129;-71
2022/04/03 09:47:20;;;;;;;12.13;5.15;;;;;;;;;;6368768;27;20069;-71
2022/04/03 09:50:20;;;;;;;11.98;5.32;;;;;;;;;;6373589;27;20367;-71
2022/04/03 09:53:20;;;;;;;10.23;4.47;;;;;;;;;;6373750;27;20023;-70
2022/04/03 09:56:20;;;;;;;28.00;14.47;;;;;;;;;;6373602;27;20268;-70
2022/04/03 09:59:21;;;;;;;14.30;5.90;;;;;;;;;;6367791;27;20305;-70
2022/04/03 10:02:24;;;;;;;12.23;5.10;;;;;;;;;;6350580;27;20024;-70
2022/04/03 10:05:24;;;;;;;;;;;;;;;;;;6373671;27;20127;-70
2022/04/03 10:08:25;;;;;;;8.88;4.85;;;;;;;;;;6354616;27;20011;-70
2022/04/03 10:11:25;;;;;;;10.00;4.27;;;;;;;;;;6347788;28;20443;-70
2022/04/03 10:14:26;;;;;;;8.20;4.25;;;;;;;;;;6346933;28;20020;-70
2022/04/03 10:17:26;;;;;;;8.68;3.92;;;;;;;;;;6369259;27;20015;-70
2022/04/03 10:20:28;;;;;;;15.37;6.80;;;;;;;;;;6350498;27;20094;-69
2022/04/03 10:23:30;;;;;;;8.55;3.33;;;;;;;;;;6372170;27;20261;-69
2022/04/03 10:26:30;;;;;;;;;;;;;;;;;;6362557;27;20119;-69
2022/04/03 10:29:31;;;;;;;8.35;4.20;;;;;;;;;;6357370;27;20005;-69
2022/04/03 10:32:33;;;;;;;10.18;4.82;;;;;;;;;;6363797;27;20038;-69
2022/04/03 10:35:35;;;;;;;9.27;4.50;;;;;;;;;;6365769;27;20015;-69
2022/04/03 10:38:43;;;;;;;9.45;3.95;;;;;;;;;;6367948;27;20200;-69
2022/04/03 10:41:44;;;;;;;7.03;3.63;;;;;;;;;;6364706;27;20036;-69
2022/04/03 10:45:04;;;;;;;10.23;4.55;;;;;;;;;;6365983;27;20027;-69
2022/04/03 10:48:20;;;;;;;13.43;7.35;;;;;;;;;;6364607;27;20062;-69
2022/04/03 10:51:24;;;;;;;9.40;4.30;;;;;;;;;;6362987;27;20549;-69
2022/04/03 10:54:30;;;;;;;14.65;8.85;;;;;;;;;;6368879;27;20028;-69
2022/04/03 10:57:33;;;;;;;13.20;7.32;;;;;;;;;;6368143;27;20023;-69
2022/04/03 11:00:38;;;;;;;12.40;7.85;;;;;;;;;;6362836;27;20072;-69
2022/04/03 11:03:38;;;;;;;13.52;7.82;;;;;;;;;;6364425;27;20104;-68
2022/04/03 11:06:39;;;;;;;21.10;9.02;;;;;;;;;;6366355;27;20460;-68
2022/04/03 11:09:40;;;;;;;17.87;6.93;;;;;;;;;;6363867;27;20023;-68
2022/04/03 11:12:45;;;;;;;10.35;5.22;;;;;;;;;;6364290;27;20026;-68
2022/04/03 11:15:51;;;;;;;14.82;8.77;;;;;;;;;;6335663;27;20401;-68
2022/04/03 11:18:51;;;;;;;22.15;12.82;;;;;;;;;;6365971;27;20067;-67
2022/04/03 11:21:52;;;;;;;12.38;6.20;;;;;;;;;;6362574;27;20478;-67
2022/04/03 11:24:52;;;;;;;10.50;5.88;;;;;;;;;;6364060;27;20102;-67
2022/04/03 11:27:52;;;;;;;17.95;9.85;;;;;;;;;;6354188;27;20145;-67
2022/04/03 11:30:53;;;;;;;28.20;12.05;;;;;;;;;;6360280;27;20402;-67
2022/04/03 11:33:53;;;;;;;11.10;4.97;;;;;;;;;;6364347;27;20374;-68
2022/04/03 11:36:58;;;;;;;12.48;4.53;;;;;;;;;;6357840;27;20027;-68
2022/04/03 11:39:58;;;;;;;9.15;3.53;;;;;;;;;;6355831;27;20015;-67
2022/04/03 11:43:07;;;;;;;10.25;4.22;;;;;;;;;;6358369;27;20027;-68
2022/04/03 11:46:07;;;;;;;8.90;4.55;;;;;;;;;;6352594;27;20035;-67
2022/04/03 11:49:11;;;;;;;11.73;4.82;;;;;;;;;;6354529;27;20054;-67
2022/04/03 11:52:12;;;;;;;10.20;4.88;;;;;;;;;;6348772;27;20077;-67
2022/04/03 11:55:12;;;;;;;9.38;4.78;;;;;;;;;;6348686;27;20383;-67
2022/04/03 11:58:13;;;;;;;10.50;4.80;;;;;;;;;;6359057;27;20026;-67
2022/04/03 12:01:13;;;;;;;7.95;4.22;;;;;;;;;;6367477;27;20036;-67
2022/04/03 12:04:13;;;;;;;13.40;5.68;;;;;;;;;;6358727;27;20020;-67
2022/04/03 12:07:13;;;;;;;9.83;4.77;;;;;;;;;;6347482;27;20015;-67
2022/04/03 12:10:21;;;;;;;10.45;4.47;;;;;;;;;;6357282;27;20279;-67
2022/04/03 12:13:22;;;;;;;9.95;5.05;;;;;;;;;;6351855;27;20562;-67
2022/04/03 12:16:23;;;;;;;9.65;5.43;;;;;;;;;;6347627;27;20084;-66
2022/04/03 12:19:24;;;;;;;9.95;4.22;;;;;;;;;;6348497;27;20011;-66
2022/04/03 12:22:25;;;;;;;6.68;3.50;;;;;;;;;;6350584;27;20020;-67
2022/04/03 12:25:25;;;;;;;11.00;4.35;;;;;;;;;;6345267;27;20046;-67
2022/04/03 12:28:25;;;;;;;10.80;4.17;;;;;;;;;;6354355;27;20015;-67
2022/04/03 12:31:26;;;;;;;13.05;5.22;;;;;;;;;;6349626;27;20360;-67
2022/04/03 12:34:29;;;;;;;9.97;4.80;;;;;;;;;;6343919;27;20031;-67
2022/04/03 12:37:32;;;;;;;11.60;3.92;;;;;;;;;;6344273;27;20473;-67
2022/04/03 12:40:32;;;;;;;10.73;4.05;;;;;;;;;;6345594;27;20017;-68
2022/04/03 12:43:43;;;;;;;8.80;4.43;;;;;;;;;;6347624;27;20103;-67
2022/04/03 12:46:45;;;;;;;9.63;4.10;;;;;;;;;;6346764;27;20302;-67
2022/04/03 12:49:49;;;;;;;7.82;4.53;;;;;;;;;;6352133;27;20462;-67
2022/04/03 12:52:52;;;;;;;6.63;3.50;;;;;;;;;;6343823;27;20132;-67
2022/04/03 12:55:54;;;;;;;9.98;5.22;;;;;;;;;;6355543;27;20027;-67
2022/04/03 12:58:54;;;;;;;10.98;5.47;;;;;;;;;;6359725;27;20044;-67
2022/04/03 13:01:55;;;;;;;21.53;9.57;;;;;;;;;;6358199;27;20547;-67
2022/04/03 13:04:58;;;;;;;22.87;10.50;;;;;;;;;;6356961;27;20274;-67
2022/04/03 13:08:08;;;;;;;14.13;5.82;;;;;;;;;;6341564;27;20015;-67
2022/04/03 13:11:08;;;;;;;14.98;7.60;;;;;;;;;;6357206;27;20114;-67
2022/04/03 13:14:12;;;;;;;9.57;4.85;;;;;;;;;;6361035;27;20026;-67
2022/04/03 13:17:13;;;;;;;11.95;4.13;;;;;;;;;;6361587;27;20050;-67
2022/04/03 13:20:13;;;;;;;7.55;3.97;;;;;;;;;;6338005;27;20374;-67
2022/04/03 13:23:13;;;;;;;8.48;4.78;;;;;;;;;;6346201;27;20042;-67
2022/04/03 13:26:13;;;;;;;28.27;14.50;;;;;;;;;;6365051;27;20092;-67
2022/04/03 13:29:15;;;;;;;54.55;30.92;;;;;;;;;;6352249;27;20301;-67
2022/04/03 13:32:19;;;;;;;38.20;16.27;;;;;;;;;;6355929;27;20039;-67
2022/04/03 13:35:20;;;;;;;31.75;17.50;;;;;;;;;;6349760;28;20039;-67
2022/04/03 13:38:20;;;;;;;34.08;15.52;;;;;;;;;;6353237;28;20024;-67
2022/04/03 13:41:21;;;;;;;35.87;18.60;;;;;;;;;;6349527;28;20427;-67
2022/04/03 13:44:22;;;;;;;69.03;35.88;;;;;;;;;;6368423;28;20767;-68
2022/04/03 13:47:22;;;;;;;33.08;15.82;;;;;;;;;;6368874;28;20019;-67
2022/04/03 13:50:22;;;;;;;21.97;11.43;;;;;;;;;;6368066;28;20027;-67
2022/04/03 13:53:22;;;;;;;16.97;9.00;;;;;;;;;;6368650;28;20304;-67
2022/04/03 13:56:24;;;;;;;19.48;10.10;;;;;;;;;;6368711;28;20325;-67
2022/04/03 13:59:25;;;;;;;14.57;7.43;;;;;;;;;;6368547;28;20015;-67
2022/04/03 14:02:25;;;;;;;15.00;6.68;;;;;;;;;;6350055;28;20023;-67
2022/04/03 14:05:25;;;;;;;12.33;5.57;;;;;;;;;;6368393;28;20486;-67
2022/04/03 14:08:26;;;;;;;7.80;4.28;;;;;;;;;;6367708;28;20257;-67
2022/04/03 14:11:26;;;;;;;9.63;4.95;;;;;;;;;;6368416;28;20018;-67
2022/04/03 14:14:27;;;;;;;18.80;9.38;;;;;;;;;;6352676;28;20265;-67
2022/04/03 14:17:28;;;;;;;6.53;3.45;;;;;;;;;;6365121;28;20432;-67
2022/04/03 14:20:29;;;;;;;7.45;3.92;;;;;;;;;;6367972;28;20029;-67
2022/04/03 14:23:32;;;;;;;8.23;4.38;;;;;;;;;;6362758;27;20023;-67
2022/04/03 14:26:32;;;;;;;9.77;5.30;;;;;;;;;;6363380;27;20019;-67
2022/04/03 14:29:32;;;;;;;12.82;5.68;;;;;;;;;;6364940;27;20076;-67
2022/04/03 14:32:33;;;;;;;26.13;10.80;;;;;;;;;;6365180;28;20080;-67
2022/04/03 14:35:34;;;;;;;32.33;14.00;;;;;;;;;;6359516;27;20059;-67
2022/04/03 14:38:34;;;;;;;35.73;15.83;;;;;;;;;;6355499;27;20023;-67
2022/04/03 14:41:35;;;;;;;13.85;6.18;;;;;;;;;;6351193;27;20023;-67
2022/04/03 14:44:36;;;;;;;26.80;11.80;;;;;;;;;;6371298;27;20019;-67
2022/04/03 14:47:37;;;;;;;22.38;9.98;;;;;;;;;;6372746;27;20066;-68
2022/04/03 14:50:37;;;;;;;49.00;17.65;;;;;;;;;;6370322;27;20027;-67
2022/04/03 14:53:37;;;;;;;14.80;6.82;;;;;;;;;;6366386;27;20587;-67
2022/04/03 14:56:37;;;;;;;37.20;20.27;;;;;;;;;;6372345;27;20027;-68
2022/04/03 14:59:38;;;;;;;21.60;7.45;;;;;;;;;;6380768;27;20101;-67
2022/04/03 15:02:38;;;;;;;21.53;11.30;;;;;;;;;;6373682;27;20489;-67
2022/04/03 15:05:39;;;;;;;19.85;10.55;;;;;;;;;;6369026;27;21648;-67
2022/04/03 15:08:40;;;;;;;24.15;11.77;;;;;;;;;;6361715;27;20026;-67
2022/04/03 15:11:41;;;;;;;17.77;10.95;;;;;;;;;;6364984;27;20023;-67
2022/04/03 15:14:41;;;;;;;22.92;10.65;;;;;;;;;;6356962;27;20011;-67
2022/04/03 15:17:41;;;;;;;20.70;10.23;;;;;;;;;;6360703;27;20026;-67
2022/04/03 15:20:41;;;;;;;21.52;10.20;;;;;;;;;;6361851;27;20460;-67
2022/04/03 15:23:42;;;;;;;11.85;5.60;;;;;;;;;;6361033;27;20015;-67
2022/04/03 15:26:42;;;;;;;11.17;5.90;;;;;;;;;;6365076;27;20034;-67
2022/04/03 15:29:47;;;;;;;14.60;8.73;;;;;;;;;;6362997;27;20264;-67
2022/04/03 15:32:47;;;;;;;8.98;5.47;;;;;;;;;;6369412;27;20042;-66
2022/04/03 15:35:48;;;;;;;16.47;6.83;;;;;;;;;;6368388;27;20034;-66
2022/04/03 15:38:48;;;;;;;27.48;10.77;;;;;;;;;;6367800;27;20782;-67
2022/04/03 15:41:48;;;;;;;10.03;4.63;;;;;;;;;;6357771;27;20031;-66
2022/04/03 15:44:49;;;;;;;13.68;5.53;;;;;;;;;;6370667;27;20253;-66
2022/04/03 15:47:49;;;;;;;10.40;6.75;;;;;;;;;;6367450;27;20050;-67
2022/04/03 15:50:49;;;;;;;28.65;13.15;;;;;;;;;;6361950;27;20019;-67
2022/04/03 15:53:53;;;;;;;63.03;22.83;;;;;;;;;;6360658;27;20450;-66
2022/04/03 15:56:54;;;;;;;48.00;17.80;;;;;;;;;;6362736;27;20714;-66
2022/04/03 15:59:54;;;;;;;32.63;12.93;;;;;;;;;;6363957;27;20122;-67
2022/04/03 16:02:54;;;;;;;38.90;14.00;;;;;;;;;;6364138;27;20015;-66
2022/04/03 16:05:54;;;;;;;26.43;10.57;;;;;;;;;;6365442;27;20015;-66
2022/04/03 16:08:54;;;;;;;28.02;11.85;;;;;;;;;;6367384;27;20252;-66
2022/04/03 16:11:55;;;;;;;32.77;13.27;;;;;;;;;;6361599;27;20304;-66
2022/04/03 16:14:55;;;;;;;24.77;12.68;;;;;;;;;;6351663;27;20361;-66
2022/04/03 16:17:56;;;;;;;40.53;21.30;;;;;;;;;;6354669;27;20022;-66
2022/04/03 16:20:56;;;;;;;54.00;23.08;;;;;;;;;;6345367;27;20310;-66
2022/04/03 16:23:57;;;;;;;33.80;14.93;;;;;;;;;;6344618;27;20019;-66
2022/04/03 16:26:57;;;;;;;21.83;10.60;;;;;;;;;;6350164;27;20596;-66
2022/04/03 16:29:57;;;;;;;65.97;33.08;;;;;;;;;;6367295;27;20675;-66
2022/04/03 16:32:57;;;;;;;32.00;14.37;;;;;;;;;;6362452;27;20050;-66
2022/04/03 16:35:58;;;;;;;27.00;16.45;;;;;;;;;;6345472;27;20262;-66
2022/04/03 16:38:58;;;;;;;24.40;14.77;;;;;;;;;;6345774;27;20514;-66
2022/04/03 16:41:58;;;;;;;34.20;15.45;;;;;;;;;;6346939;27;20082;-66
2022/04/03 16:44:58;;;;;;;69.13;33.63;;;;;;;;;;6347731;27;20076;-66
2022/04/03 16:47:59;;;;;;;50.50;26.10;;;;;;;;;;6350607;27;20257;-66
2022/04/03 16:50:59;;;;;;;55.53;24.50;;;;;;;;;;6348322;27;20031;-66
2022/04/03 16:53:59;;;;;;;107.47;49.72;;;;;;;;;;6358315;27;20019;-66
2022/04/03 16:56:59;;;;;;;67.75;30.25;;;;;;;;;;6366482;27;20015;-66
2022/04/03 17:00:00;;;;;;;39.05;15.00;;;;;;;;;;6364123;27;20023;-66
2022/04/03 17:03:00;;;;;;;19.77;7.80;;;;;;;;;;6360636;27;20052;-66
2022/04/03 17:06:00;;;;;;;42.10;20.13;;;;;;;;;;6363641;27;20339;-66
2022/04/03 17:09:02;;;;;;;39.08;18.30;;;;;;;;;;6366355;27;20672;-66
2022/04/03 17:12:02;;;;;;;35.08;15.15;;;;;;;;;;6366979;27;20047;-66
2022/04/03 17:15:03;;;;;;;33.50;14.50;;;;;;;;;;6366005;27;20038;-66
2022/04/03 17:18:03;;;;;;;118.50;54.60;;;;;;;;;;6360225;27;20396;-66
2022/04/03 17:21:06;;;;;;;81.38;42.47;;;;;;;;;;6349754;27;20122;-66
2022/04/03 17:24:07;;;;;;;98.40;34.28;;;;;;;;;;6348224;27;20055;-66
2022/04/03 17:27:07;;;;;;;28.52;14.70;;;;;;;;;;6368736;27;20413;-66
2022/04/03 17:30:07;;;;;;;41.90;17.87;;;;;;;;;;6357923;27;20648;-66
2022/04/03 17:33:08;;;;;;;26.48;11.45;;;;;;;;;;6342918;28;20293;-66
2022/04/03 17:36:08;;;;;;;23.90;10.77;;;;;;;;;;6343370;28;20080;-66
2022/04/03 17:39:09;;;;;;;16.63;7.20;;;;;;;;;;6328616;28;20098;-67
2022/04/03 17:42:09;;;;;;;18.33;7.90;;;;;;;;;;6348413;28;20443;-66
2022/04/03 17:45:09;;;;;;;11.68;7.60;;;;;;;;;;6365795;28;21083;-66
2022/04/03 17:48:11;;;;;;;95.28;45.83;;;;;;;;;;6363298;27;20019;-66
2022/04/03 17:51:11;;;;;;;27.70;11.97;;;;;;;;;;6366054;28;20023;-66